sensor_id;sensor_type;location;lat;lon;timestamp;temperature;humidity
32640;DHT22;19049;52.524;11.468;2023-07-31T00:02:54;16.70;99.90
32640;DHT22;19049;52.524;11.468;2023-07-31T00:05:20;16.50;99.90
32640;DHT22;19049;52.524;11.468;2023-07-31T00:07:46;17.20;99.90
32640;DHT22;19049;52.524;11.468;2023-07-31T00:10:11;16.50;99.90
32640;DHT22;19049;52.524;11.468;2023-07-31T00:12:42;16.30;99.90
32640;DHT22;19049;52.524;11.468;2023-07-31T00:15:08;16.80;99.90
32640;DHT22;19049;52.524;11.468;2023-07-31T00:17:34;15.70;99.90
32640;DHT22;19049;52.524;11.468;2023-07-31T00:24:52;16.60;99.90
32640;DHT22;19049;52.524;11.468;2023-07-31T00:27:17;15.70;99.90
32640;DHT22;19049;52.524;11.468;2023-07-31T00:29:43;16.80;99.90
32640;DHT22;19049;52.524;11.468;2023-07-31T00:32:09;17.30;99.90
32640;DHT22;19049;52.524;11.468;2023-07-31T00:34:35;17.20;99.90
32640;DHT22;19049;52.524;11.468;2023-07-31T00:37:00;16.20;99.90
32640;DHT22;19049;52.524;11.468;2023-07-31T00:44:18;16.80;99.90
32640;DHT22;19049;52.524;11.468;2023-07-31T00:46:44;17.10;99.90
32640;DHT22;19049;52.524;11.468;2023-07-31T00:49:10;16.60;99.90
32640;DHT22;19049;52.524;11.468;2023-07-31T00:51:36;17.10;99.90
32640;DHT22;19049;52.524;11.468;2023-07-31T00:54:03;16.70;99.90
32640;DHT22;19049;52.524;11.468;2023-07-31T01:03:49;16.70;99.90
32640;DHT22;19049;52.524;11.468;2023-07-31T01:09:16;15.90;99.90
32640;DHT22;19049;52.524;11.468;2023-07-31T01:11:51;16.80;99.90
32640;DHT22;19049;52.524;11.468;2023-07-31T01:14:17;17.00;99.90
32640;DHT22;19049;52.524;11.468;2023-07-31T01:16:43;17.70;99.90
32640;DHT22;19049;52.524;11.468;2023-07-31T01:19:09;16.60;99.90
32640;DHT22;19049;52.524;11.468;2023-07-31T01:27:20;16.70;99.90
32640;DHT22;19049;52.524;11.468;2023-07-31T01:34:39;16.50;99.90
32640;DHT22;19049;52.524;11.468;2023-07-31T02:06:19;16.80;99.90
32640;DHT22;19049;52.524;11.468;2023-07-31T02:08:45;17.00;99.90
32640;DHT22;19049;52.524;11.468;2023-07-31T02:11:10;17.00;99.90
32640;DHT22;19049;52.524;11.468;2023-07-31T02:20:54;16.40;99.90
32640;DHT22;19049;52.524;11.468;2023-07-31T02:25:46;16.60;99.90
32640;DHT22;19049;52.524;11.468;2023-07-31T02:30:38;17.40;99.90
32640;DHT22;19049;52.524;11.468;2023-07-31T02:33:05;16.70;99.90
32640;DHT22;19049;52.524;11.468;2023-07-31T02:35:30;16.40;99.90
32640;DHT22;19049;52.524;11.468;2023-07-31T02:40:22;16.50;99.90
32640;DHT22;19049;52.524;11.468;2023-07-31T02:47:40;16.30;99.90
32640;DHT22;19049;52.524;11.468;2023-07-31T02:52:32;16.90;99.90
32640;DHT22;19049;52.524;11.468;2023-07-31T02:57:24;16.50;99.90
32640;DHT22;19049;52.524;11.468;2023-07-31T02:59:50;16.70;99.90
32640;DHT22;19049;52.524;11.468;2023-07-31T03:11:59;16.10;99.90
32640;DHT22;19049;52.524;11.468;2023-07-31T03:16:54;16.20;99.90
32640;DHT22;19049;52.524;11.468;2023-07-31T03:19:20;17.10;99.90
32640;DHT22;19049;52.524;11.468;2023-07-31T03:24:12;16.10;99.90
32640;DHT22;19049;52.524;11.468;2023-07-31T03:26:38;16.50;99.90
32640;DHT22;19049;52.524;11.468;2023-07-31T03:38:52;16.50;99.90
32640;DHT22;19049;52.524;11.468;2023-07-31T03:46:09;17.10;99.90
32640;DHT22;19049;52.524;11.468;2023-07-31T04:03:11;16.00;99.90
32640;DHT22;19049;52.524;11.468;2023-07-31T04:05:38;16.50;99.90
32640;DHT22;19049;52.524;11.468;2023-07-31T04:17:50;16.40;99.90
32640;DHT22;19049;52.524;11.468;2023-07-31T04:20:17;16.50;99.90
32640;DHT22;19049;52.524;11.468;2023-07-31T04:22:42;16.20;99.90
32640;DHT22;19049;52.524;11.468;2023-07-31T04:25:08;16.90;99.90
32640;DHT22;19049;52.524;11.468;2023-07-31T04:30:00;17.00;99.90
32640;DHT22;19049;52.524;11.468;2023-07-31T04:34:51;16.90;99.90
32640;DHT22;19049;52.524;11.468;2023-07-31T04:49:28;16.70;99.90
32640;DHT22;19049;52.524;11.468;2023-07-31T04:51:53;16.60;99.90
32640;DHT22;19049;52.524;11.468;2023-07-31T04:54:19;16.80;99.90
32640;DHT22;19049;52.524;11.468;2023-07-31T04:56:44;16.80;99.90
32640;DHT22;19049;52.524;11.468;2023-07-31T04:59:10;16.80;99.90
32640;DHT22;19049;52.524;11.468;2023-07-31T05:01:36;16.90;99.90
32640;DHT22;19049;52.524;11.468;2023-07-31T05:04:01;16.90;99.90
32640;DHT22;19049;52.524;11.468;2023-07-31T05:06:27;16.90;99.90
32640;DHT22;19049;52.524;11.468;2023-07-31T05:08:53;16.60;99.90
32640;DHT22;19049;52.524;11.468;2023-07-31T05:11:19;16.50;99.90
32640;DHT22;19049;52.524;11.468;2023-07-31T05:16:10;16.70;99.90
32640;DHT22;19049;52.524;11.468;2023-07-31T05:18:36;17.10;99.90
32640;DHT22;19049;52.524;11.468;2023-07-31T05:21:02;17.10;99.90
32640;DHT22;19049;52.524;11.468;2023-07-31T05:23:27;17.20;99.90
32640;DHT22;19049;52.524;11.468;2023-07-31T05:25:53;17.30;99.90
32640;DHT22;19049;52.524;11.468;2023-07-31T05:28:19;17.20;99.90
32640;DHT22;19049;52.524;11.468;2023-07-31T05:30:44;17.10;99.90
32640;DHT22;19049;52.524;11.468;2023-07-31T05:33:10;17.50;99.90
32640;DHT22;19049;52.524;11.468;2023-07-31T05:35:35;17.50;99.90
32640;DHT22;19049;52.524;11.468;2023-07-31T05:38:01;17.30;99.90
32640;DHT22;19049;52.524;11.468;2023-07-31T05:40:27;17.50;99.90
32640;DHT22;19049;52.524;11.468;2023-07-31T05:42:52;17.60;99.90
32640;DHT22;19049;52.524;11.468;2023-07-31T05:45:18;17.60;99.90
32640;DHT22;19049;52.524;11.468;2023-07-31T05:47:43;17.60;99.90
32640;DHT22;19049;52.524;11.468;2023-07-31T05:50:09;17.00;99.90
32640;DHT22;19049;52.524;11.468;2023-07-31T05:52:35;18.10;99.90
32640;DHT22;19049;52.524;11.468;2023-07-31T06:04:45;17.60;99.90
32640;DHT22;19049;52.524;11.468;2023-07-31T06:24:13;18.50;99.90
32640;DHT22;19049;52.524;11.468;2023-07-31T07:00:46;18.50;99.90
32640;DHT22;19049;52.524;11.468;2023-07-31T07:05:40;18.80;99.90
32640;DHT22;19049;52.524;11.468;2023-07-31T07:08:06;18.60;99.90
32640;DHT22;19049;52.524;11.468;2023-07-31T07:17:50;17.70;99.90
32640;DHT22;19049;52.524;11.468;2023-07-31T07:27:36;17.10;99.90
32640;DHT22;19049;52.524;11.468;2023-07-31T07:30:02;17.10;99.90
32640;DHT22;19049;52.524;11.468;2023-07-31T07:34:55;17.30;99.90
32640;DHT22;19049;52.524;11.468;2023-07-31T07:47:05;17.30;99.90
32640;DHT22;19049;52.524;11.468;2023-07-31T07:49:33;17.30;99.90
32640;DHT22;19049;52.524;11.468;2023-07-31T07:54:25;17.20;99.90
32640;DHT22;19049;52.524;11.468;2023-07-31T08:04:09;17.70;99.90
32640;DHT22;19049;52.524;11.468;2023-07-31T08:45:38;18.00;99.90
32640;DHT22;19049;52.524;11.468;2023-07-31T08:50:33;18.30;99.90
32640;DHT22;19049;52.524;11.468;2023-07-31T08:57:52;18.20;99.90
32640;DHT22;19049;52.524;11.468;2023-07-31T09:00:19;18.30;99.90
32640;DHT22;19049;52.524;11.468;2023-07-31T09:05:17;18.50;99.90
32640;DHT22;19049;52.524;11.468;2023-07-31T09:07:45;18.80;99.90
32640;DHT22;19049;52.524;11.468;2023-07-31T09:12:39;18.20;99.90
32640;DHT22;19049;52.524;11.468;2023-07-31T09:15:05;19.20;99.90
32640;DHT22;19049;52.524;11.468;2023-07-31T09:17:35;19.40;99.90
32640;DHT22;19049;52.524;11.468;2023-07-31T09:25:18;19.70;99.90
32640;DHT22;19049;52.524;11.468;2023-07-31T09:32:47;19.80;99.90
32640;DHT22;19049;52.524;11.468;2023-07-31T09:35:28;20.00;99.90
32640;DHT22;19049;52.524;11.468;2023-07-31T09:37:56;20.10;99.90
32640;DHT22;19049;52.524;11.468;2023-07-31T09:43:06;20.70;99.90
32640;DHT22;19049;52.524;11.468;2023-07-31T09:45:41;21.10;99.90
32640;DHT22;19049;52.524;11.468;2023-07-31T09:48:12;21.10;99.90
32640;DHT22;19049;52.524;11.468;2023-07-31T09:50:42;21.20;99.90
32640;DHT22;19049;52.524;11.468;2023-07-31T09:53:08;21.30;99.90
32640;DHT22;19049;52.524;11.468;2023-07-31T09:55:35;21.40;99.90
32640;DHT22;19049;52.524;11.468;2023-07-31T09:58:08;21.40;99.90
32640;DHT22;19049;52.524;11.468;2023-07-31T10:00:34;21.30;99.90
32640;DHT22;19049;52.524;11.468;2023-07-31T10:03:03;21.30;99.90
32640;DHT22;19049;52.524;11.468;2023-07-31T10:05:50;21.10;99.90
32640;DHT22;19049;52.524;11.468;2023-07-31T10:08:17;21.00;99.90
32640;DHT22;19049;52.524;11.468;2023-07-31T10:10:45;21.00;99.90
32640;DHT22;19049;52.524;11.468;2023-07-31T10:13:12;20.80;99.90
32640;DHT22;19049;52.524;11.468;2023-07-31T10:15:39;20.60;99.90
32640;DHT22;19049;52.524;11.468;2023-07-31T10:18:06;20.60;99.90
32640;DHT22;19049;52.524;11.468;2023-07-31T10:20:32;21.30;99.90
32640;DHT22;19049;52.524;11.468;2023-07-31T10:22:59;21.20;99.90
32640;DHT22;19049;52.524;11.468;2023-07-31T10:25:26;21.00;99.90
32640;DHT22;19049;52.524;11.468;2023-07-31T10:27:53;21.00;99.90
32640;DHT22;19049;52.524;11.468;2023-07-31T10:30:26;21.10;99.90
32640;DHT22;19049;52.524;11.468;2023-07-31T10:32:53;21.30;99.90
32640;DHT22;19049;52.524;11.468;2023-07-31T10:35:20;20.70;99.90
32640;DHT22;19049;52.524;11.468;2023-07-31T10:37:48;21.50;99.90
32640;DHT22;19049;52.524;11.468;2023-07-31T10:40:19;21.20;99.90
32640;DHT22;19049;52.524;11.468;2023-07-31T10:42:57;20.60;99.90
32640;DHT22;19049;52.524;11.468;2023-07-31T10:45:37;21.00;99.90
32640;DHT22;19049;52.524;11.468;2023-07-31T10:48:16;20.50;99.90
32640;DHT22;19049;52.524;11.468;2023-07-31T10:53:40;20.90;99.90
32640;DHT22;19049;52.524;11.468;2023-07-31T10:56:08;20.90;99.90
32640;DHT22;19049;52.524;11.468;2023-07-31T10:58:35;21.40;99.90
32640;DHT22;19049;52.524;11.468;2023-07-31T11:01:03;20.70;99.90
32640;DHT22;19049;52.524;11.468;2023-07-31T11:03:49;20.60;99.90
32640;DHT22;19049;52.524;11.468;2023-07-31T11:11:12;20.50;99.90
32640;DHT22;19049;52.524;11.468;2023-07-31T11:13:46;20.50;99.90
32640;DHT22;19049;52.524;11.468;2023-07-31T11:16:15;20.30;99.90
32640;DHT22;19049;52.524;11.468;2023-07-31T11:18:41;20.10;99.90
32640;DHT22;19049;52.524;11.468;2023-07-31T11:21:11;19.50;99.90
32640;DHT22;19049;52.524;11.468;2023-07-31T11:23:37;19.90;99.90
32640;DHT22;19049;52.524;11.468;2023-07-31T11:26:05;19.80;99.90
32640;DHT22;19049;52.524;11.468;2023-07-31T11:28:32;20.30;99.90
32640;DHT22;19049;52.524;11.468;2023-07-31T11:30:59;19.90;99.90
32640;DHT22;19049;52.524;11.468;2023-07-31T11:33:26;20.70;99.90
32640;DHT22;19049;52.524;11.468;2023-07-31T11:40:52;21.80;99.90
32640;DHT22;19049;52.524;11.468;2023-07-31T11:43:19;22.00;99.90
32640;DHT22;19049;52.524;11.468;2023-07-31T11:45:50;21.30;99.90
32640;DHT22;19049;52.524;11.468;2023-07-31T11:48:24;22.40;99.90
32640;DHT22;19049;52.524;11.468;2023-07-31T11:50:53;21.40;99.90
32640;DHT22;19049;52.524;11.468;2023-07-31T11:53:23;21.80;99.90
32640;DHT22;19049;52.524;11.468;2023-07-31T11:55:51;21.60;99.90
32640;DHT22;19049;52.524;11.468;2023-07-31T11:58:18;21.20;99.90
32640;DHT22;19049;52.524;11.468;2023-07-31T12:00:44;21.80;99.90
32640;DHT22;19049;52.524;11.468;2023-07-31T12:05:37;21.30;99.90
32640;DHT22;19049;52.524;11.468;2023-07-31T12:08:09;22.10;99.90
32640;DHT22;19049;52.524;11.468;2023-07-31T12:13:10;21.80;99.90
32640;DHT22;19049;52.524;11.468;2023-07-31T12:15:43;22.50;99.90
32640;DHT22;19049;52.524;11.468;2023-07-31T12:18:14;22.60;99.90
32640;DHT22;19049;52.524;11.468;2023-07-31T12:20:45;23.30;99.90
32640;DHT22;19049;52.524;11.468;2023-07-31T12:23:21;23.10;99.90
32640;DHT22;19049;52.524;11.468;2023-07-31T12:26:04;23.30;99.90
32640;DHT22;19049;52.524;11.468;2023-07-31T12:28:32;23.20;99.90
32640;DHT22;19049;52.524;11.468;2023-07-31T12:31:00;24.50;99.90
32640;DHT22;19049;52.524;11.468;2023-07-31T12:33:33;23.30;99.90
32640;DHT22;19049;52.524;11.468;2023-07-31T12:36:02;22.80;99.90
32640;DHT22;19049;52.524;11.468;2023-07-31T12:38:28;23.80;99.90
32640;DHT22;19049;52.524;11.468;2023-07-31T12:40:54;22.70;99.90
32640;DHT22;19049;52.524;11.468;2023-07-31T12:43:19;22.40;99.90
32640;DHT22;19049;52.524;11.468;2023-07-31T12:45:45;23.00;99.90
32640;DHT22;19049;52.524;11.468;2023-07-31T12:48:12;22.90;99.90
32640;DHT22;19049;52.524;11.468;2023-07-31T12:50:38;23.10;99.90
32640;DHT22;19049;52.524;11.468;2023-07-31T12:53:04;22.80;99.90
32640;DHT22;19049;52.524;11.468;2023-07-31T12:55:30;22.70;99.90
32640;DHT22;19049;52.524;11.468;2023-07-31T12:57:56;22.60;99.90
32640;DHT22;19049;52.524;11.468;2023-07-31T13:00:22;22.60;99.90
32640;DHT22;19049;52.524;11.468;2023-07-31T13:02:48;22.60;99.90
32640;DHT22;19049;52.524;11.468;2023-07-31T13:05:14;22.60;99.90
32640;DHT22;19049;52.524;11.468;2023-07-31T13:07:40;22.60;99.90
32640;DHT22;19049;52.524;11.468;2023-07-31T13:10:07;22.60;99.90
32640;DHT22;19049;52.524;11.468;2023-07-31T13:12:33;22.60;99.90
32640;DHT22;19049;52.524;11.468;2023-07-31T13:14:59;22.60;99.90
32640;DHT22;19049;52.524;11.468;2023-07-31T13:17:24;22.60;99.90
32640;DHT22;19049;52.524;11.468;2023-07-31T13:19:50;22.60;99.90
32640;DHT22;19049;52.524;11.468;2023-07-31T13:22:15;22.60;99.90
32640;DHT22;19049;52.524;11.468;2023-07-31T13:24:41;22.60;99.90
32640;DHT22;19049;52.524;11.468;2023-07-31T13:27:07;22.50;99.90
32640;DHT22;19049;52.524;11.468;2023-07-31T13:29:32;22.50;99.90
32640;DHT22;19049;52.524;11.468;2023-07-31T13:31:58;22.50;99.90
32640;DHT22;19049;52.524;11.468;2023-07-31T13:34:24;22.40;99.90
32640;DHT22;19049;52.524;11.468;2023-07-31T13:36:50;22.40;99.90
32640;DHT22;19049;52.524;11.468;2023-07-31T13:39:15;21.80;99.90
32640;DHT22;19049;52.524;11.468;2023-07-31T13:41:41;22.60;99.90
32640;DHT22;19049;52.524;11.468;2023-07-31T13:44:07;22.20;99.90
32640;DHT22;19049;52.524;11.468;2023-07-31T13:46:32;22.50;99.90
32640;DHT22;19049;52.524;11.468;2023-07-31T13:48:59;22.80;99.90
32640;DHT22;19049;52.524;11.468;2023-07-31T13:51:25;22.50;99.90
32640;DHT22;19049;52.524;11.468;2023-07-31T13:53:51;22.20;99.90
32640;DHT22;19049;52.524;11.468;2023-07-31T13:56:16;23.30;99.90
32640;DHT22;19049;52.524;11.468;2023-07-31T13:58:42;23.10;99.90
32640;DHT22;19049;52.524;11.468;2023-07-31T14:01:08;22.50;99.90
32640;DHT22;19049;52.524;11.468;2023-07-31T14:03:34;23.00;99.90
32640;DHT22;19049;52.524;11.468;2023-07-31T14:06:00;23.10;99.90
32640;DHT22;19049;52.524;11.468;2023-07-31T14:08:25;23.10;99.90
32640;DHT22;19049;52.524;11.468;2023-07-31T14:10:51;23.10;99.90
32640;DHT22;19049;52.524;11.468;2023-07-31T14:13:17;22.80;99.90
32640;DHT22;19049;52.524;11.468;2023-07-31T14:18:09;22.90;99.90
32640;DHT22;19049;52.524;11.468;2023-07-31T14:20:35;22.10;99.90
32640;DHT22;19049;52.524;11.468;2023-07-31T14:23:04;22.70;99.90
32640;DHT22;19049;52.524;11.468;2023-07-31T14:25:29;22.70;99.90
32640;DHT22;19049;52.524;11.468;2023-07-31T14:27:55;22.50;99.90
32640;DHT22;19049;52.524;11.468;2023-07-31T14:30:21;22.30;99.90
32640;DHT22;19049;52.524;11.468;2023-07-31T14:32:47;22.10;99.90
32640;DHT22;19049;52.524;11.468;2023-07-31T14:35:13;21.90;99.90
32640;DHT22;19049;52.524;11.468;2023-07-31T14:37:40;21.60;99.90
32640;DHT22;19049;52.524;11.468;2023-07-31T14:40:07;21.40;99.90
32640;DHT22;19049;52.524;11.468;2023-07-31T14:42:34;21.30;99.90
32640;DHT22;19049;52.524;11.468;2023-07-31T14:45:00;21.10;99.90
32640;DHT22;19049;52.524;11.468;2023-07-31T14:47:26;21.20;99.90
32640;DHT22;19049;52.524;11.468;2023-07-31T14:49:52;21.00;99.90
32640;DHT22;19049;52.524;11.468;2023-07-31T14:52:17;20.90;99.90
32640;DHT22;19049;52.524;11.468;2023-07-31T14:54:43;20.90;99.90
32640;DHT22;19049;52.524;11.468;2023-07-31T14:57:09;21.40;99.90
32640;DHT22;19049;52.524;11.468;2023-07-31T15:04:27;20.50;99.90
32640;DHT22;19049;52.524;11.468;2023-07-31T15:06:52;20.20;99.90
32640;DHT22;19049;52.524;11.468;2023-07-31T15:11:44;20.80;99.90
32640;DHT22;19049;52.524;11.468;2023-07-31T15:16:36;21.00;99.90
32640;DHT22;19049;52.524;11.468;2023-07-31T15:19:01;20.90;99.90
32640;DHT22;19049;52.524;11.468;2023-07-31T15:23:53;20.40;99.90
32640;DHT22;19049;52.524;11.468;2023-07-31T15:28:50;20.70;99.90
32640;DHT22;19049;52.524;11.468;2023-07-31T15:31:20;20.60;99.90
32640;DHT22;19049;52.524;11.468;2023-07-31T15:33:48;20.50;99.90
32640;DHT22;19049;52.524;11.468;2023-07-31T15:38:41;21.00;99.90
32640;DHT22;19049;52.524;11.468;2023-07-31T15:48:24;21.20;99.90
32640;DHT22;19049;52.524;11.468;2023-07-31T15:53:16;21.60;99.90
32640;DHT22;19049;52.524;11.468;2023-07-31T15:55:42;21.50;99.90
32640;DHT22;19049;52.524;11.468;2023-07-31T16:00:33;21.60;99.90
32640;DHT22;19049;52.524;11.468;2023-07-31T16:02:59;21.70;99.90
32640;DHT22;19049;52.524;11.468;2023-07-31T16:07:51;21.50;99.90
32640;DHT22;19049;52.524;11.468;2023-07-31T16:10:16;20.80;99.90
32640;DHT22;19049;52.524;11.468;2023-07-31T16:12:42;21.30;99.90
32640;DHT22;19049;52.524;11.468;2023-07-31T16:15:08;21.30;99.90
32640;DHT22;19049;52.524;11.468;2023-07-31T16:17:34;21.30;99.90
32640;DHT22;19049;52.524;11.468;2023-07-31T16:20:00;21.40;99.90
32640;DHT22;19049;52.524;11.468;2023-07-31T16:22:26;21.40;99.90
32640;DHT22;19049;52.524;11.468;2023-07-31T16:24:52;21.40;99.90
32640;DHT22;19049;52.524;11.468;2023-07-31T16:27:17;21.40;99.90
32640;DHT22;19049;52.524;11.468;2023-07-31T16:29:45;21.40;99.90
32640;DHT22;19049;52.524;11.468;2023-07-31T16:32:11;21.40;99.90
32640;DHT22;19049;52.524;11.468;2023-07-31T16:34:37;21.40;99.90
32640;DHT22;19049;52.524;11.468;2023-07-31T16:37:03;21.40;99.90
32640;DHT22;19049;52.524;11.468;2023-07-31T16:39:29;21.40;99.90
32640;DHT22;19049;52.524;11.468;2023-07-31T16:42:01;21.40;99.90
32640;DHT22;19049;52.524;11.468;2023-07-31T16:44:26;21.40;99.90
32640;DHT22;19049;52.524;11.468;2023-07-31T16:46:52;21.40;99.90
32640;DHT22;19049;52.524;11.468;2023-07-31T16:49:18;21.40;99.90
32640;DHT22;19049;52.524;11.468;2023-07-31T16:51:43;21.40;99.90
32640;DHT22;19049;52.524;11.468;2023-07-31T16:54:09;21.40;99.90
32640;DHT22;19049;52.524;11.468;2023-07-31T16:56:34;21.40;99.90
32640;DHT22;19049;52.524;11.468;2023-07-31T16:59:00;21.40;99.90
32640;DHT22;19049;52.524;11.468;2023-07-31T17:01:26;21.40;99.90
32640;DHT22;19049;52.524;11.468;2023-07-31T17:03:56;21.40;99.90
32640;DHT22;19049;52.524;11.468;2023-07-31T17:06:22;21.40;99.90
32640;DHT22;19049;52.524;11.468;2023-07-31T17:08:48;21.40;99.90
32640;DHT22;19049;52.524;11.468;2023-07-31T17:11:13;21.50;99.90
32640;DHT22;19049;52.524;11.468;2023-07-31T17:13:39;21.50;99.90
32640;DHT22;19049;52.524;11.468;2023-07-31T17:16:06;21.50;99.90
32640;DHT22;19049;52.524;11.468;2023-07-31T17:18:31;21.50;99.90
32640;DHT22;19049;52.524;11.468;2023-07-31T17:20:57;21.50;99.90
32640;DHT22;19049;52.524;11.468;2023-07-31T17:23:23;21.60;99.90
32640;DHT22;19049;52.524;11.468;2023-07-31T17:25:48;21.60;99.90
32640;DHT22;19049;52.524;11.468;2023-07-31T17:28:14;21.60;99.90
32640;DHT22;19049;52.524;11.468;2023-07-31T17:30:40;21.60;99.90
32640;DHT22;19049;52.524;11.468;2023-07-31T17:33:05;21.60;99.90
32640;DHT22;19049;52.524;11.468;2023-07-31T17:35:31;21.60;99.90
32640;DHT22;19049;52.524;11.468;2023-07-31T17:37:57;21.60;99.90
32640;DHT22;19049;52.524;11.468;2023-07-31T17:40:23;21.60;99.90
32640;DHT22;19049;52.524;11.468;2023-07-31T17:42:49;21.60;99.90
32640;DHT22;19049;52.524;11.468;2023-07-31T17:45:14;21.50;99.90
32640;DHT22;19049;52.524;11.468;2023-07-31T17:47:43;21.50;99.90
32640;DHT22;19049;52.524;11.468;2023-07-31T17:50:09;21.50;99.90
32640;DHT22;19049;52.524;11.468;2023-07-31T17:52:35;21.50;99.90
32640;DHT22;19049;52.524;11.468;2023-07-31T17:55:01;21.50;99.90
32640;DHT22;19049;52.524;11.468;2023-07-31T17:57:27;21.50;99.90
32640;DHT22;19049;52.524;11.468;2023-07-31T17:59:53;21.50;99.90
32640;DHT22;19049;52.524;11.468;2023-07-31T18:02:19;21.50;99.90
32640;DHT22;19049;52.524;11.468;2023-07-31T18:04:45;21.40;99.90
32640;DHT22;19049;52.524;11.468;2023-07-31T18:07:11;21.40;99.90
32640;DHT22;19049;52.524;11.468;2023-07-31T18:09:40;21.40;99.90
32640;DHT22;19049;52.524;11.468;2023-07-31T18:12:07;21.40;99.90
32640;DHT22;19049;52.524;11.468;2023-07-31T18:14:33;21.40;99.90
32640;DHT22;19049;52.524;11.468;2023-07-31T18:17:02;21.40;99.90
32640;DHT22;19049;52.524;11.468;2023-07-31T18:19:29;21.30;99.90
32640;DHT22;19049;52.524;11.468;2023-07-31T18:21:54;21.30;99.90
32640;DHT22;19049;52.524;11.468;2023-07-31T18:24:20;21.30;99.90
32640;DHT22;19049;52.524;11.468;2023-07-31T18:26:46;21.30;99.90
32640;DHT22;19049;52.524;11.468;2023-07-31T18:29:11;21.30;99.90
32640;DHT22;19049;52.524;11.468;2023-07-31T18:31:37;21.30;99.90
32640;DHT22;19049;52.524;11.468;2023-07-31T18:34:03;21.30;99.90
32640;DHT22;19049;52.524;11.468;2023-07-31T18:36:28;21.30;99.90
32640;DHT22;19049;52.524;11.468;2023-07-31T18:38:54;21.20;99.90
32640;DHT22;19049;52.524;11.468;2023-07-31T18:41:20;21.20;99.90
32640;DHT22;19049;52.524;11.468;2023-07-31T18:43:45;21.20;99.90
32640;DHT22;19049;52.524;11.468;2023-07-31T18:46:11;21.20;99.90
32640;DHT22;19049;52.524;11.468;2023-07-31T18:48:38;21.20;99.90
32640;DHT22;19049;52.524;11.468;2023-07-31T18:51:03;21.20;99.90
32640;DHT22;19049;52.524;11.468;2023-07-31T18:53:29;21.10;99.90
32640;DHT22;19049;52.524;11.468;2023-07-31T18:55:55;21.10;99.90
32640;DHT22;19049;52.524;11.468;2023-07-31T18:58:21;21.10;99.90
32640;DHT22;19049;52.524;11.468;2023-07-31T19:00:46;21.10;99.90
32640;DHT22;19049;52.524;11.468;2023-07-31T19:03:12;21.00;99.90
32640;DHT22;19049;52.524;11.468;2023-07-31T19:05:41;21.00;99.90
32640;DHT22;19049;52.524;11.468;2023-07-31T19:08:07;21.00;99.90
32640;DHT22;19049;52.524;11.468;2023-07-31T19:10:34;20.90;99.90
32640;DHT22;19049;52.524;11.468;2023-07-31T19:13:00;20.90;99.90
32640;DHT22;19049;52.524;11.468;2023-07-31T19:15:26;20.90;99.90
32640;DHT22;19049;52.524;11.468;2023-07-31T19:17:52;20.90;99.90
32640;DHT22;19049;52.524;11.468;2023-07-31T19:22:43;20.10;99.90
32640;DHT22;19049;52.524;11.468;2023-07-31T19:25:09;21.50;99.90
32640;DHT22;19049;52.524;11.468;2023-07-31T19:27:35;20.60;99.90
32640;DHT22;19049;52.524;11.468;2023-07-31T19:32:28;20.60;99.90
32640;DHT22;19049;52.524;11.468;2023-07-31T19:34:53;20.40;99.90
32640;DHT22;19049;52.524;11.468;2023-07-31T19:39:45;21.00;99.90
32640;DHT22;19049;52.524;11.468;2023-07-31T19:42:12;19.90;99.90
32640;DHT22;19049;52.524;11.468;2023-07-31T19:47:04;21.10;99.90
32640;DHT22;19049;52.524;11.468;2023-07-31T19:51:56;21.00;99.90
32640;DHT22;19049;52.524;11.468;2023-07-31T19:56:47;20.50;99.90
32640;DHT22;19049;52.524;11.468;2023-07-31T19:59:17;19.70;99.90
32640;DHT22;19049;52.524;11.468;2023-07-31T20:04:10;20.40;99.90
32640;DHT22;19049;52.524;11.468;2023-07-31T20:09:02;21.10;99.90
32640;DHT22;19049;52.524;11.468;2023-07-31T20:11:30;20.40;99.90
32640;DHT22;19049;52.524;11.468;2023-07-31T20:13:56;21.20;99.90
32640;DHT22;19049;52.524;11.468;2023-07-31T20:16:21;20.70;99.90
32640;DHT22;19049;52.524;11.468;2023-07-31T20:18:48;20.60;99.90
32640;DHT22;19049;52.524;11.468;2023-07-31T20:21:14;20.50;99.90
32640;DHT22;19049;52.524;11.468;2023-07-31T20:23:40;20.40;99.90
32640;DHT22;19049;52.524;11.468;2023-07-31T20:26:07;20.50;99.90
32640;DHT22;19049;52.524;11.468;2023-07-31T20:28:32;21.00;99.90
32640;DHT22;19049;52.524;11.468;2023-07-31T20:30:58;20.00;99.90
32640;DHT22;19049;52.524;11.468;2023-07-31T20:33:24;21.10;99.90
32640;DHT22;19049;52.524;11.468;2023-07-31T20:35:49;19.90;99.90
32640;DHT22;19049;52.524;11.468;2023-07-31T20:38:15;20.50;99.90
32640;DHT22;19049;52.524;11.468;2023-07-31T20:40:41;20.90;99.90
32640;DHT22;19049;52.524;11.468;2023-07-31T20:43:06;20.10;99.90
32640;DHT22;19049;52.524;11.468;2023-07-31T20:45:33;20.80;99.90
32640;DHT22;19049;52.524;11.468;2023-07-31T20:48:03;20.30;99.90
32640;DHT22;19049;52.524;11.468;2023-07-31T20:50:29;20.30;99.90
32640;DHT22;19049;52.524;11.468;2023-07-31T20:52:57;20.30;99.90
32640;DHT22;19049;52.524;11.468;2023-07-31T20:55:24;20.30;99.90
32640;DHT22;19049;52.524;11.468;2023-07-31T20:57:50;20.20;99.90
32640;DHT22;19049;52.524;11.468;2023-07-31T21:00:16;20.20;99.90
32640;DHT22;19049;52.524;11.468;2023-07-31T21:02:42;20.10;99.90
32640;DHT22;19049;52.524;11.468;2023-07-31T21:05:08;20.00;99.90
32640;DHT22;19049;52.524;11.468;2023-07-31T21:07:33;20.00;99.90
32640;DHT22;19049;52.524;11.468;2023-07-31T21:09:59;19.90;99.90
32640;DHT22;19049;52.524;11.468;2023-07-31T21:12:25;19.80;99.90
32640;DHT22;19049;52.524;11.468;2023-07-31T21:14:51;18.90;99.90
32640;DHT22;19049;52.524;11.468;2023-07-31T21:17:16;19.60;99.90
32640;DHT22;19049;52.524;11.468;2023-07-31T21:19:43;19.00;99.90
32640;DHT22;19049;52.524;11.468;2023-07-31T21:22:09;18.70;99.90
32640;DHT22;19049;52.524;11.468;2023-07-31T21:24:35;20.00;99.90
32640;DHT22;19049;52.524;11.468;2023-07-31T21:27:01;19.30;99.90
32640;DHT22;19049;52.524;11.468;2023-07-31T21:29:26;19.30;99.90
32640;DHT22;19049;52.524;11.468;2023-07-31T21:34:18;19.40;99.90
32640;DHT22;19049;52.524;11.468;2023-07-31T21:36:44;19.80;99.90
32640;DHT22;19049;52.524;11.468;2023-07-31T21:39:09;18.80;99.90
32640;DHT22;19049;52.524;11.468;2023-07-31T21:41:36;19.70;99.90
32640;DHT22;19049;52.524;11.468;2023-07-31T21:46:28;18.80;99.90
32640;DHT22;19049;52.524;11.468;2023-07-31T21:51:20;19.40;99.90
32640;DHT22;19049;52.524;11.468;2023-07-31T21:56:11;18.50;99.90